Date,TemperatureHighF,TemperatureAvgF,TemperatureLowF,DewpointHighF,DewpointAvgF,DewpointLowF,HumidityHigh,HumidityAvg,HumidityLow,PressureMaxIn,PressureMinIn,WindSpeedMaxMPH,WindSpeedAvgMPH,GustSpeedMaxMPH,PrecipitationSumIn
2013-1-1,43.9,40.4,38.0,32.0,28.5,23.0,76,63,50,29.99,29.87,4,0,0,0.00
2013-1-2,39.5,34.0,25.4,29.0,21.1,14.0,80,61,40,30.21,29.97,8,1,0,0.00
2013-1-3,36.6,28.7,23.8,20.0,18.2,16.0,84,66,46,30.24,30.14,1,0,0,0.00
2013-1-4,43.2,32.7,21.0,23.0,19.9,18.0,90,63,41,30.19,30.08,9,1,0,0.00
2013-1-5,44.8,36.5,26.7,30.0,22.0,17.0,72,57,39,30.36,30.13,5,1,0,0.00
2013-1-6,52.6,41.9,29.3,33.0,29.3,26.0,92,63,38,30.18,30.00,4,0,0,0.00
2013-1-7,47.7,40.5,26.7,30.0,26.5,24.0,89,59,42,30.41,30.11,7,1,0,0.00
2013-1-8,54.1,40.6,24.5,35.0,30.8,22.0,93,71,45,30.41,30.34,8,0,0,0.00
2013-1-9,60.2,44.4,30.7,47.0,37.7,28.0,95,79,55,30.36,30.20,4,0,0,0.00
2013-1-10,54.5,46.3,36.8,32.0,28.8,26.0,79,52,33,30.57,30.34,6,1,0,0.00
2013-1-11,45.2,39.6,30.9,43.0,36.3,28.0,97,88,73,30.48,30.08,3,0,0,0.04
2013-1-12,55.4,45.6,42.2,48.0,43.7,41.0,98,93,75,30.15,30.08,2,0,0,0.00
2013-1-13,57.6,47.1,41.8,57.0,46.5,41.0,99,98,97,30.12,29.96,3,0,0,0.01
2013-1-14,61.8,55.5,41.1,60.0,50.5,35.0,99,84,61,30.26,29.94,9,1,0,0.09
2013-1-15,40.9,39.3,36.3,40.0,38.3,35.0,97,96,90,30.31,30.12,4,0,0,0.72
2013-1-16,41.6,38.5,35.5,41.0,37.8,35.0,97,97,95,30.11,29.84,5,0,0,0.33
2013-1-17,43.1,40.4,36.3,41.0,38.0,33.0,98,92,69,30.11,29.95,2,0,0,0.08
2013-1-18,37.8,34.1,26.0,34.0,19.8,6.0,92,59,28,30.48,29.99,8,2,0,0.00
2013-1-19,53.8,40.7,30.1,30.0,25.9,20.0,75,58,35,30.42,30.00,8,1,0,0.00
2013-1-20,60.1,47.2,38.5,32.0,24.7,8.0,63,44,21,30.05,29.80,8,2,0,0.00
2013-1-21,43.9,36.3,27.9,33.0,21.2,11.0,74,55,37,30.08,29.76,10,2,0,0.00
2013-1-22,31.2,22.6,17.3,12.0,-1.7,-7.0,48,35,26,30.27,29.89,16,4,0,0.00
2013-1-23,26.0,20.4,10.4,12.0,1.7,-3.0,75,46,28,30.33,30.14,7,1,0,0.00
2013-1-24,26.3,20.2,10.9,17.0,8.4,-1.0,88,63,32,30.49,30.07,9,1,0,0.03
2013-1-25,23.6,17.5,8.6,18.0,8.2,1.0,89,69,39,30.50,30.06,1,0,0,0.00
2013-1-26,34.9,27.6,21.1,21.0,18.8,16.0,86,70,53,30.41,30.07,6,1,0,0.04
2013-1-27,38.2,28.1,20.2,23.0,19.4,16.0,89,72,45,30.58,30.42,4,0,0,0.00
2013-1-28,48.5,37.8,29.4,44.0,33.2,23.0,95,84,74,30.49,30.02,7,0,0,0.12
2013-1-29,68.8,56.1,41.2,52.0,47.5,39.0,94,74,54,30.11,29.97,7,1,0,0.00
2013-1-30,71.6,65.0,56.5,61.0,57.8,51.0,87,78,68,29.97,29.25,9,2,0,0.04
2013-1-31,65.6,46.0,28.4,62.0,28.7,12.0,94,53,27,29.91,29.11,13,5,0,0.69
2013-2-1,33.5,27.5,20.5,29.0,11.9,3.0,92,54,35,30.36,29.78,16,4,0,0.00
2013-2-2,32.4,24.8,15.2,26.0,11.6,3.0,89,60,35,30.37,29.99,4,1,0,0.00
2013-2-3,34.3,28.4,19.9,29.0,24.4,18.0,93,85,60,29.99,29.82,9,0,0,0.02
2013-2-4,35.8,30.4,21.0,23.0,15.4,9.0,74,54,44,30.09,29.88,15,1,0,0.00
2013-2-5,42.1,34.5,28.1,32.0,26.3,22.0,89,72,55,29.92,29.83,2,0,0,0.00
2013-2-6,47.3,36.1,26.9,31.0,26.3,22.0,92,70,43,30.34,29.91,8,1,0,0.00
2013-2-7,39.8,32.9,24.2,31.0,25.6,21.0,89,75,55,30.43,30.18,5,1,0,0.00
2013-2-8,42.8,37.9,33.5,42.0,34.2,23.0,97,87,58,30.17,29.69,14,3,0,0.52
2013-2-9,40.9,33.6,25.0,22.0,17.8,15.0,74,53,37,30.36,29.86,17,5,0,0.00
2013-2-10,44.3,32.2,18.9,30.0,17.9,10.0,86,59,27,30.47,30.24,6,0,0,0.00
2013-2-11,55.4,46.4,37.9,52.0,43.8,31.0,98,91,75,30.23,29.68,5,1,0,0.32
2013-2-12,57.2,47.9,39.8,46.0,29.9,24.0,82,52,28,29.97,29.77,8,1,0,0.00
2013-2-13,44.5,38.9,34.3,38.0,31.7,28.0,95,76,57,29.93,29.63,6,1,0,0.25
2013-2-14,49.8,38.9,31.3,35.0,30.5,23.0,96,75,36,30.00,29.74,5,1,0,0.01
2013-2-15,60.7,44.8,31.8,36.0,33.2,28.0,92,68,29,30.02,29.86,11,1,0,0.04
2013-2-16,37.8,35.0,32.5,36.0,31.8,18.0,96,89,55,30.00,29.78,4,0,0,0.18
2013-2-17,32.4,28.7,24.8,18.0,10.4,3.0,61,47,32,30.18,29.78,14,5,0,0.00
2013-2-18,42.8,30.3,20.2,20.0,9.2,4.0,60,43,24,30.36,30.16,9,1,0,0.00
2013-2-19,45.2,41.0,34.6,44.0,32.1,19.0,95,72,51,30.16,29.71,6,1,0,0.10
2013-2-20,39.5,33.8,25.7,26.0,15.2,9.0,61,47,36,30.13,29.82,12,4,0,0.00
2013-2-21,39.3,30.5,23.6,19.0,13.1,8.0,66,49,37,30.29,30.11,12,3,0,0.00
2013-2-22,34.0,31.5,28.4,31.0,23.4,16.0,93,73,56,30.36,30.19,5,0,0,0.03
2013-2-23,44.9,38.6,32.8,44.0,37.9,31.0,98,97,93,30.19,29.77,5,0,0,0.12
2013-2-24,52.8,43.6,33.8,43.0,32.9,19.0,98,70,35,30.07,29.76,13,3,0,0.01
2013-2-25,46.4,35.2,25.4,26.0,22.3,19.0,85,61,39,30.20,30.08,7,1,0,0.00
2013-2-26,46.7,36.7,25.7,46.0,33.7,23.0,97,89,73,30.21,29.56,10,2,0,0.47
2013-2-27,56.9,48.9,41.3,47.0,40.9,33.0,98,77,51,29.67,29.47,9,2,0,0.02
2013-2-28,49.9,43.6,38.8,39.0,31.0,23.0,90,63,36,29.70,29.60,13,2,0,0.06
2013-3-1,45.1,41.8,38.3,31.0,28.0,25.0,69,59,47,29.84,29.69,7,2,0,0.00
2013-3-2,38.0,34.8,29.8,26.0,22.0,19.0,68,60,51,29.85,29.78,10,3,0,0.00
2013-3-3,40.2,33.8,28.5,21.0,19.0,17.0,69,56,41,29.89,29.76,11,3,0,0.00
2013-3-4,43.6,34.5,26.9,20.0,16.3,13.0,73,49,34,30.01,29.89,11,4,0,0.00
2013-3-5,48.0,35.3,22.5,32.0,21.6,16.0,84,60,28,30.07,29.81,8,1,0,0.00
2013-3-6,39.1,36.4,32.8,37.0,34.4,31.0,96,92,77,29.93,29.52,9,2,0,1.41
2013-3-7,44.1,38.9,35.9,32.0,28.7,26.0,77,67,49,30.06,29.93,9,4,0,0.00
2013-3-10,59.6,49.7,42.5,40.0,21.9,-99.9,89,42,18,30.26,30.22,8,-26,0,0.00
2013-3-11,58.9,50.6,41.5,48.0,44.5,39.0,94,81,64,30.24,29.95,7,2,0,0.00
2013-3-12,60.2,53.7,43.1,57.0,46.8,31.0,97,79,58,29.94,29.68,13,3,0,0.48
2013-3-13,49.9,42.0,30.6,34.0,26.9,17.0,90,57,28,30.03,29.87,14,2,0,0.00
2013-3-14,46.7,37.8,29.4,21.0,16.1,11.0,69,43,26,30.10,29.98,12,4,0,0.00
2013-3-15,57.0,40.9,25.4,33.0,23.4,17.0,83,55,25,30.07,29.77,8,1,0,0.00
2013-3-16,56.5,45.7,35.2,44.0,36.0,31.0,89,70,49,29.88,29.61,9,1,0,0.00
2013-3-17,42.1,37.1,31.8,33.0,30.9,27.0,93,79,59,30.25,29.88,4,0,0,0.00
2013-3-18,39.1,36.8,31.8,38.0,31.5,22.0,97,83,55,30.31,29.85,8,1,0,0.29
2013-3-19,59.3,47.2,37.0,41.0,31.2,9.0,98,63,16,29.88,29.69,10,2,0,0.11
2013-3-20,53.9,45.1,34.3,27.0,14.0,7.0,57,30,19,29.98,29.73,11,2,0,0.00
2013-3-21,43.5,35.4,29.5,26.0,15.0,6.0,68,45,29,29.88,29.72,11,4,0,0.00
2013-3-22,48.3,36.2,26.6,21.0,14.9,9.0,64,43,27,29.98,29.85,11,2,0,0.00
2013-3-23,53.8,39.0,23.3,26.0,21.9,20.0,87,55,28,30.01,29.88,7,2,0,0.00
2013-3-24,41.2,35.3,27.0,33.0,25.2,22.0,94,68,47,29.98,29.64,3,0,0,0.06
2013-3-25,36.3,34.1,32.4,35.0,32.9,31.0,97,95,91,29.67,29.48,8,1,0,0.70
2013-3-26,48.9,39.5,29.1,37.0,30.7,27.0,98,74,45,29.95,29.67,8,1,0,0.04
2013-3-27,51.1,43.7,38.0,32.0,27.7,24.0,68,54,35,30.08,29.95,11,3,0,0.00
2013-3-28,49.4,43.3,36.6,30.0,27.7,23.0,69,55,38,30.19,30.06,14,3,0,0.00
2013-3-29,56.2,46.6,35.6,31.0,28.3,25.0,76,51,32,30.23,30.11,12,2,0,0.00
2013-3-30,61.3,45.9,30.6,35.0,28.8,24.0,90,57,24,30.20,30.09,9,0,0,0.00
2013-3-31,58.7,49.6,42.8,51.0,41.7,28.0,96,76,52,30.11,29.72,10,1,0,0.04
2013-4-1,67.1,51.0,39.6,49.0,37.9,23.0,98,66,35,29.94,29.68,11,3,0,0.00
2013-4-2,51.1,41.6,29.8,24.0,15.8,10.0,69,38,20,30.15,29.95,12,3,0,0.00
2013-4-3,52.9,41.2,29.0,22.0,15.1,9.0,73,38,20,30.35,30.15,12,3,0,0.00
2013-4-4,50.2,38.2,24.7,36.0,21.1,13.0,93,54,26,30.39,30.09,7,1,0,0.10
2013-4-5,64.7,49.9,37.5,41.0,32.1,20.0,97,60,23,30.08,29.79,8,2,0,0.90
2013-4-6,52.9,46.4,37.0,32.0,22.3,8.0,65,40,18,30.31,30.00,5,1,0,0.00
2013-4-7,70.3,55.4,34.9,43.0,38.0,29.0,94,56,32,30.28,29.98,6,1,0,0.00
2013-4-8,77.2,66.3,52.9,52.0,46.7,42.0,68,50,35,30.05,29.94,9,2,0,0.00
2013-4-9,87.2,74.1,62.0,55.0,52.3,49.0,68,49,27,30.05,29.91,6,1,0,0.00
2013-4-10,91.8,78.3,64.5,57.0,54.0,50.0,69,46,25,29.95,29.75,7,1,0,0.00
2013-4-11,87.0,71.0,54.5,62.0,57.3,52.0,91,64,38,29.84,29.72,15,2,0,0.00
2013-4-12,74.7,58.9,51.4,69.0,57.4,50.0,99,95,75,29.80,29.54,5,1,0,0.87
2013-4-13,66.9,56.1,43.9,54.0,44.1,38.0,97,67,36,29.92,29.70,8,2,0,0.00
2013-4-14,57.8,54.0,46.2,47.0,44.7,43.0,91,71,59,30.10,29.92,0,0,0,0.00
2013-4-15,60.5,57.1,53.8,52.0,48.1,45.0,89,72,57,30.27,30.10,8,1,0,0.01
2013-4-16,76.1,62.9,50.7,59.0,53.9,48.0,93,74,52,30.29,30.11,8,1,0,0.00
2013-4-17,76.3,65.6,58.1,63.0,58.3,55.0,96,78,59,30.20,30.09,7,1,0,0.00
2013-4-18,74.6,64.8,58.7,64.0,58.7,55.0,97,81,61,30.20,30.00,10,3,0,0.04
2013-4-19,80.1,68.9,52.2,66.0,61.9,51.0,97,80,58,30.00,29.57,10,1,0,0.86
2013-4-20,62.1,52.8,45.1,50.0,34.8,26.0,95,55,27,30.29,29.74,7,2,0,0.12
2013-4-21,53.2,45.3,36.6,34.0,29.2,23.0,82,55,32,30.56,30.30,8,1,0,0.00
2013-4-22,54.5,46.2,33.7,41.0,37.3,32.0,92,72,56,30.56,30.37,8,1,0,0.00
2013-4-23,61.5,51.0,43.3,47.0,42.8,40.0,93,75,55,30.37,30.11,3,0,0,0.00
2013-4-24,78.1,60.8,41.2,59.0,49.7,40.0,98,71,42,30.11,29.79,8,1,0,0.00
2013-4-25,66.6,55.4,45.8,54.0,36.9,30.0,79,52,29,30.27,29.91,11,2,0,0.00
2013-4-26,67.6,53.6,39.8,43.0,38.9,33.0,95,63,31,30.41,30.27,5,0,0,0.00
2013-4-27,68.8,56.3,41.5,50.0,39.3,29.0,96,60,23,30.39,30.27,5,0,0,0.00
2013-4-28,67.9,56.4,41.8,47.0,38.8,29.0,96,57,27,30.27,30.14,10,1,0,0.00
2013-4-29,58.6,55.8,53.8,58.0,54.3,46.0,98,95,67,30.15,30.03,8,2,0,0.57
2013-4-30,57.0,55.6,53.9,57.0,55.0,52.0,99,97,90,30.25,30.05,4,1,0,0.22
2013-5-1,67.8,57.3,47.6,52.0,45.5,34.0,95,69,30,30.39,30.25,5,0,0,0.00
2013-5-2,67.4,55.0,45.7,51.0,47.2,44.0,96,77,48,30.41,30.29,3,0,0,0.00
2013-5-3,63.1,53.6,43.5,49.0,43.3,39.0,97,71,44,30.35,30.28,10,1,0,0.00
2013-5-4,66.3,55.2,46.2,49.0,44.0,39.0,92,68,41,30.31,30.16,11,1,0,0.00
2013-5-5,62.3,52.6,45.7,48.0,43.1,39.0,86,71,55,30.22,30.13,9,1,0,0.00
2013-5-6,61.5,55.3,49.5,58.0,53.0,46.0,96,92,85,30.15,30.03,7,1,0,0.00
2013-5-7,63.7,59.9,57.5,62.0,58.9,57.0,98,96,90,30.03,29.89,11,2,0,0.64
2013-5-8,66.8,60.1,56.7,60.0,57.5,56.0,98,91,73,29.98,29.92,5,0,0,0.20
2013-5-9,74.6,61.9,52.6,62.0,57.2,52.0,99,86,56,29.97,29.90,3,0,0,0.01
2013-5-10,84.5,69.3,53.2,64.0,58.4,52.0,99,72,37,29.99,29.84,5,0,0,0.14
2013-5-11,79.9,69.5,63.1,68.0,63.6,61.0,98,83,54,29.90,29.67,4,0,0,0.51
2013-5-12,65.6,60.4,51.4,63.0,45.2,28.0,98,63,28,30.00,29.71,8,2,0,0.15
2013-5-13,61.2,52.0,40.6,37.0,31.3,23.0,86,48,26,30.13,30.00,8,1,0,0.00
2013-5-14,65.5,51.2,34.4,45.0,35.6,29.0,96,61,28,30.19,30.04,7,1,0,0.00
2013-5-15,85.9,69.2,56.3,65.0,54.0,44.0,68,59,45,30.03,29.66,6,1,0,0.00
2013-5-16,85.5,74.6,65.0,65.0,60.9,58.0,83,64,44,29.88,29.71,8,0,0,0.00
2013-5-17,79.0,68.9,56.6,59.0,52.4,43.0,96,60,30,30.12,29.88,3,0,0,0.00
2013-5-18,64.7,61.9,59.3,60.0,57.2,54.0,96,84,68,30.21,30.13,6,1,0,0.09
2013-5-19,75.8,66.1,60.2,68.0,63.9,59.0,99,93,74,30.18,30.07,4,0,0,0.00
2013-5-20,81.8,72.4,65.5,70.0,67.2,64.0,96,84,64,30.10,29.95,4,0,0,0.00
2013-5-21,83.8,74.1,67.8,71.0,67.9,66.0,94,82,62,29.98,29.86,2,0,0,0.00
2013-5-22,85.7,76.7,69.8,74.0,70.0,68.0,96,81,62,29.91,29.81,9,0,0,0.00
2013-5-23,80.5,73.9,68.1,69.0,67.9,61.0,91,82,66,29.88,29.73,9,1,0,0.02
2013-5-24,67.1,58.0,50.7,62.0,49.5,34.0,96,74,50,30.11,29.71,14,3,0,0.03
2013-5-25,67.3,55.5,44.8,41.0,35.9,32.0,69,50,29,30.14,30.04,13,2,0,0.00
2013-5-26,73.5,58.4,43.1,45.0,39.5,33.0,86,55,25,30.19,30.09,7,1,0,0.00
2013-5-27,74.0,59.7,43.1,54.0,46.5,38.0,96,66,29,30.25,30.16,2,0,0,0.00
2013-5-28,85.7,70.6,58.6,68.0,61.8,54.0,96,75,51,30.18,30.04,4,0,0,0.37
2013-5-29,89.5,77.1,66.4,72.0,67.5,65.0,96,75,48,30.10,30.04,3,0,0,0.01
2013-5-30,91.4,79.6,68.4,72.0,67.2,63.0,85,67,47,30.16,30.08,3,0,0,0.00
2013-5-31,91.4,78.9,66.4,68.0,66.0,64.0,92,67,40,30.13,30.00,2,0,0,0.00
2013-6-1,91.4,80.6,69.6,72.0,67.2,64.0,86,65,44,30.03,29.90,5,0,0,0.00
2013-6-2,89.3,78.1,70.1,72.0,68.1,64.0,95,72,53,29.91,29.81,4,1,0,0.07
2013-6-3,79.9,70.8,66.8,71.0,68.4,66.0,97,92,71,29.91,29.78,3,0,0,1.07
2013-6-4,78.5,66.5,56.2,67.0,53.7,44.0,97,69,30,30.09,29.91,3,0,0,0.00
2013-6-5,78.5,67.1,53.2,59.0,55.0,52.0,97,69,43,30.15,30.04,4,0,0,0.00
2013-6-6,74.0,67.1,57.8,66.0,60.7,54.0,94,80,67,30.07,29.84,7,1,0,0.19
2013-6-7,70.9,69.5,66.6,70.0,68.7,66.0,99,97,94,29.84,29.52,4,0,0,1.70
2013-6-8,81.2,69.9,64.7,69.0,65.9,64.0,99,88,58,30.05,29.65,3,0,0,0.03
2013-6-9,83.2,73.0,62.6,75.0,66.8,62.0,99,83,54,30.16,30.06,5,0,0,0.00
2013-6-10,87.8,78.9,71.3,83.0,76.4,68.0,99,92,79,30.07,29.78,4,0,0,1.60
2013-6-11,90.7,80.2,70.8,79.0,73.7,66.0,99,82,58,29.82,29.74,4,0,0,0.00
2013-6-12,89.3,78.2,67.6,73.0,68.8,64.0,89,74,48,29.83,29.76,5,0,0,0.00
2013-6-13,89.5,75.5,68.9,74.0,68.5,59.0,94,80,52,29.77,29.43,7,1,0,0.12
2013-6-14,79.4,68.6,59.9,61.0,57.8,53.0,93,70,45,29.93,29.54,9,1,0,0.03
2013-6-15,84.0,70.6,57.3,64.0,59.6,54.0,97,72,39,30.05,29.93,2,0,0,0.00
2013-6-16,85.3,73.8,63.2,70.0,65.8,61.0,96,77,53,30.00,29.85,3,0,0,0.00
2013-6-17,86.7,77.9,70.8,73.0,69.7,68.0,91,77,57,29.94,29.85,2,0,0,0.00
2013-6-18,76.7,74.2,71.1,75.0,72.3,70.0,98,94,85,29.89,29.76,3,0,0,1.03
2013-6-19,84.5,76.2,70.1,74.0,70.8,67.0,99,84,58,30.13,29.85,4,0,0,0.00
2013-6-20,85.3,74.3,62.7,72.0,63.4,54.0,98,72,43,30.24,30.13,3,0,0,0.00
2013-6-21,81.4,68.8,55.4,65.0,58.9,46.0,96,74,32,30.28,30.21,2,0,0,0.00
2013-6-22,83.0,72.9,60.7,69.0,64.3,60.0,97,76,55,30.23,30.13,3,0,0,0.00
2013-6-23,86.1,75.0,66.3,79.0,71.8,65.0,97,90,74,30.16,30.05,0,0,0,0.70
2013-6-24,91.4,79.9,70.9,80.0,74.7,70.0,97,85,57,30.10,30.00,2,0,0,0.06
2013-6-25,91.6,79.3,68.3,77.0,71.4,65.0,98,79,55,30.02,29.87,3,0,0,0.00
2013-6-26,91.4,78.4,67.9,79.0,70.7,65.0,95,78,55,29.93,29.76,2,0,0,0.01
2013-6-27,84.7,76.3,69.8,81.0,72.4,68.0,97,88,71,29.81,29.60,3,0,0,0.34
2013-6-28,94.3,81.9,73.7,82.0,77.8,73.0,98,89,61,29.60,29.46,4,0,0,1.91
2013-6-29,92.1,81.5,73.3,80.0,76.4,73.0,99,86,59,29.67,29.50,3,0,0,0.18
2013-6-30,84.9,78.9,75.4,78.0,75.3,73.0,96,88,73,29.82,29.67,8,0,0,0.21
2013-7-1,88.6,80.2,72.5,81.0,77.0,71.0,96,90,76,29.97,29.82,4,0,0,0.04
2013-7-2,88.2,82.3,78.3,82.0,79.4,77.0,96,91,81,30.16,29.97,5,0,0,0.01
2013-7-3,93.4,84.1,78.1,84.0,80.5,76.0,98,89,70,30.21,30.14,3,0,0,0.01
2013-7-4,94.0,85.0,76.1,84.0,78.9,72.0,97,83,58,30.24,30.15,7,0,0,0.00
2013-7-5,89.5,80.7,73.5,76.0,73.3,71.0,94,79,59,30.21,30.11,2,0,0,0.01
2013-7-6,91.0,81.1,74.9,76.0,73.5,71.0,94,79,56,30.16,30.05,3,0,0,0.00
2013-7-7,90.1,80.2,71.3,78.0,72.8,68.0,96,79,60,30.09,29.97,4,0,0,0.00
2013-7-8,86.1,76.3,70.9,75.0,71.3,69.0,97,86,57,30.09,30.01,3,0,0,0.00
2013-7-9,88.0,78.2,71.8,77.0,73.1,70.0,95,85,63,30.08,29.97,0,0,0,0.00
2013-7-10,88.6,80.2,75.6,80.0,75.8,74.0,97,87,64,29.99,29.83,3,0,0,0.00
2013-7-11,92.1,83.4,79.6,82.0,80.3,79.0,98,91,69,29.89,29.81,2,0,0,0.01
2013-7-12,82.8,80.0,76.7,82.0,79.2,76.0,99,97,96,29.98,29.85,5,0,0,0.84
2013-7-13,93.8,83.6,76.3,86.0,80.3,76.0,99,90,71,30.24,29.98,5,0,0,0.01
2013-7-14,89.9,82.6,73.7,82.0,77.1,72.0,99,84,63,30.30,30.24,1,0,0,0.00
2013-7-15,94.3,81.4,71.5,78.0,73.8,70.0,97,80,52,30.28,30.15,2,0,0,0.00
2013-7-16,93.4,82.9,74.4,77.0,74.1,72.0,96,77,52,30.19,30.13,2,0,0,0.00
2013-7-17,94.5,82.8,72.8,78.0,74.1,70.0,97,77,47,30.17,30.06,0,0,0,0.00
2013-7-18,96.1,84.0,74.2,81.0,76.6,73.0,96,80,51,30.09,29.97,0,0,0,0.00
2013-7-19,95.1,85.8,77.6,80.0,76.6,75.0,92,75,55,29.99,29.84,3,0,0,0.00
2013-7-20,93.4,83.6,78.1,79.0,76.0,73.0,89,78,54,29.88,29.77,4,0,0,0.00
2013-7-21,93.2,80.3,72.8,77.0,72.9,70.0,94,80,51,29.91,29.85,6,0,0,0.00
2013-7-22,89.0,79.1,71.8,77.0,73.6,71.0,96,84,62,29.90,29.74,3,0,0,0.00
2013-7-23,88.0,79.5,72.0,76.0,72.9,69.0,96,81,58,29.74,29.61,5,0,0,0.04
2013-7-24,84.5,76.0,69.4,73.0,69.5,63.0,96,81,63,29.87,29.64,4,0,0,0.00
2013-7-25,79.6,70.8,63.7,68.0,61.8,56.0,92,74,58,29.99,29.87,4,0,0,0.00
2013-7-26,83.4,71.9,63.1,68.0,63.8,61.0,95,77,51,30.06,29.99,2,0,0,0.00
2013-7-27,83.8,73.9,64.7,71.0,68.4,63.0,97,84,62,30.03,29.91,6,0,0,0.06
2013-7-28,86.3,75.9,69.6,74.0,70.3,67.0,93,83,63,29.94,29.84,2,0,0,0.00
2013-7-29,85.1,73.2,63.4,70.0,61.9,55.0,96,72,36,30.13,29.95,4,0,0,0.03
2013-7-30,84.9,71.2,59.2,65.0,60.9,58.0,96,73,41,30.20,30.11,3,0,0,0.00
2013-7-31,81.6,72.1,63.9,70.0,66.0,63.0,96,82,58,30.13,30.00,4,0,0,0.00
2013-8-1,74.2,70.8,68.6,73.0,69.2,67.0,97,95,88,30.00,29.82,1,0,0,0.81
2013-8-21,80.1,66.4,72.5,79.0,53.5,-99.9,95,82,89,30.09,30.06,0,0,0,0.10
2013-8-22,98.0,83.5,72.8,84.0,77.6,71.0,99,83,54,30.07,29.91,4,0,0,0.04
2013-8-23,78.1,71.5,61.8,72.0,67.1,60.0,97,86,69,30.08,29.90,0,0,0,0.00
2013-8-24,83.0,69.3,57.5,67.0,62.0,57.0,98,80,48,30.31,30.08,2,0,0,0.00
2013-8-25,80.7,67.6,57.2,66.0,57.3,47.0,98,74,34,30.39,30.26,4,0,0,0.00
2013-8-26,87.2,71.7,58.4,67.0,62.4,57.0,96,75,42,30.28,29.99,4,0,0,0.00
2013-8-27,90.1,77.3,69.1,74.0,69.4,65.0,94,78,54,29.98,29.84,2,0,0,0.00
2013-8-28,82.4,75.7,70.8,82.0,73.7,70.0,98,93,74,29.89,29.79,2,0,0,0.61
2013-8-29,93.4,83.2,74.9,83.0,79.4,72.0,99,89,64,30.00,29.80,4,0,0,0.00
2013-8-30,84.7,76.2,68.8,74.0,70.5,68.0,98,83,62,30.02,29.88,4,0,0,0.00
2013-8-31,87.6,78.6,71.3,75.0,71.6,69.0,94,80,62,29.89,29.77,3,0,0,0.00
2013-9-1,89.5,78.8,68.9,76.0,71.7,68.0,96,80,54,29.83,29.73,2,0,0,0.00
2013-9-2,98.5,85.8,76.8,86.0,80.8,74.0,99,86,59,29.77,29.70,4,0,0,0.20
2013-9-3,85.5,77.0,64.5,76.0,67.8,60.0,96,76,45,29.92,29.70,5,0,0,0.00
2013-9-4,83.8,69.1,57.2,62.0,58.9,56.0,96,73,39,30.05,29.93,0,0,0,0.00
2013-9-5,84.9,71.0,59.2,65.0,60.7,51.0,97,73,48,30.09,29.96,8,0,0,0.00
2013-9-6,76.7,65.1,56.6,58.0,54.0,48.0,93,70,44,30.22,30.10,2,0,0,0.00
2013-9-7,81.1,66.4,52.5,63.0,58.4,51.0,98,78,49,30.12,29.91,3,0,0,0.00
2013-9-8,89.9,74.2,62.6,69.0,64.8,61.0,96,75,43,30.01,29.84,6,0,0,0.00
2013-9-9,77.6,70.6,62.4,69.0,60.7,51.0,92,71,57,30.17,30.02,2,0,0,0.00
2013-9-10,89.9,78.7,70.1,74.0,71.3,68.0,95,80,55,30.16,30.06,3,0,0,0.00
2013-9-11,92.5,81.6,72.7,76.0,71.7,68.0,93,74,45,30.12,29.98,2,0,0,0.00
2013-9-12,91.8,77.7,71.1,74.0,70.2,67.0,96,79,51,29.98,29.71,2,0,0,0.22
2013-9-13,79.9,70.5,62.9,70.0,61.6,51.0,97,76,39,29.88,29.67,4,0,0,0.00
2013-9-14,72.1,60.6,51.0,53.0,49.8,47.0,92,70,44,30.13,29.88,4,0,0,0.00
2013-9-15,77.9,61.5,46.7,58.0,51.9,46.0,98,75,40,30.21,30.07,4,0,0,0.00
2013-9-16,73.5,64.4,55.1,62.0,59.4,54.0,95,84,60,30.19,30.02,4,0,0,0.01
2013-9-17,68.9,57.0,47.7,53.0,47.9,40.0,96,75,36,30.39,30.20,5,0,0,0.00
2013-9-18,71.8,56.0,42.5,54.0,47.3,42.0,98,76,42,30.32,30.17,3,0,0,0.00
2013-9-19,76.7,61.3,47.6,59.0,53.7,47.0,98,78,49,30.18,30.06,5,0,0,0.00
2013-9-20,78.6,64.4,52.6,62.0,57.0,52.0,97,79,51,30.07,29.94,4,0,0,0.00
2013-9-21,79.2,67.2,57.2,67.0,61.3,56.0,96,83,55,29.96,29.67,3,0,0,0.70
2013-9-22,74.0,64.6,54.1,63.0,57.8,51.0,98,81,48,29.91,29.69,2,0,0,0.01
2013-9-23,67.3,56.2,48.6,51.0,48.2,44.0,96,77,45,30.06,29.91,5,0,0,0.00
2013-9-24,73.3,56.1,44.1,53.0,47.8,43.0,97,77,39,30.09,29.92,4,0,0,0.00
2013-9-25,76.8,58.4,46.2,58.0,51.6,45.0,98,81,42,29.95,29.86,3,0,0,0.00
2013-9-26,74.7,62.3,54.4,62.0,55.1,52.0,97,80,45,30.05,29.89,0,0,0,0.00
2013-9-27,72.7,61.0,52.9,61.0,55.5,52.0,97,84,56,30.21,30.05,2,0,0,0.00
2013-9-28,72.7,60.1,51.1,60.0,54.3,50.0,98,83,52,30.27,30.19,3,0,0,0.00
2013-9-29,75.1,60.0,49.6,61.0,53.5,49.0,98,82,46,30.19,30.04,3,0,0,0.00
2013-9-30,74.6,59.3,48.5,58.0,52.6,48.0,98,81,49,30.07,29.96,0,0,0,0.00
2013-10-1,81.8,65.0,52.9,63.0,57.8,52.0,97,80,47,30.05,29.94,4,0,0,0.00
2013-10-2,85.7,68.4,55.4,65.0,60.1,54.0,98,78,43,30.06,29.97,3,0,0,0.00
2013-10-3,81.8,68.8,57.6,67.0,62.4,57.0,97,82,55,30.09,30.01,0,0,0,0.00
2013-10-4,87.6,70.9,59.0,68.0,64.0,58.0,98,81,48,30.06,29.98,0,0,0,0.00
2013-10-5,87.6,73.2,62.4,69.0,65.6,61.0,98,79,52,30.06,29.98,0,0,0,0.00
2013-10-6,88.4,74.6,64.3,70.0,66.3,63.0,96,77,45,30.00,29.91,8,0,0,0.00
2013-10-7,78.5,67.8,54.2,70.0,64.5,53.0,97,89,74,30.02,29.79,8,0,0,0.77
2013-10-8,64.3,55.2,48.0,53.0,50.5,47.0,98,85,58,30.25,30.03,0,0,0,0.00
2013-10-9,60.9,57.3,52.5,56.0,52.9,48.0,96,86,70,30.26,30.15,0,0,0,0.25
2013-10-10,58.9,57.2,55.6,58.0,56.6,54.0,98,98,94,30.15,29.92,2,0,0,1.57
2013-10-11,64.2,61.4,58.3,64.0,61.1,58.0,99,99,98,29.94,29.87,1,0,0,1.04
2013-10-12,63.5,62.1,60.5,63.0,61.5,60.0,99,97,92,30.11,29.93,0,0,0,0.47
2013-10-13,63.7,61.4,59.9,62.0,58.8,55.0,98,91,82,30.29,30.10,1,0,0,0.08
2013-10-14,67.9,59.6,51.1,58.0,55.2,50.0,96,86,64,30.30,30.20,0,0,0,0.00
2013-10-15,71.3,58.9,47.0,60.0,53.8,46.0,98,84,58,30.21,30.05,0,0,0,0.00
2013-10-16,70.4,63.8,57.8,63.0,60.3,56.0,96,88,74,30.06,29.90,0,0,0,0.00
2013-10-17,77.2,67.1,60.9,66.0,62.6,60.0,98,86,60,29.90,29.71,3,0,0,0.00
2013-10-18,66.9,57.8,47.1,60.0,46.7,42.0,94,69,41,29.99,29.77,7,1,0,0.00
2013-10-19,62.7,55.0,44.8,60.0,52.0,44.0,98,90,66,29.98,29.77,1,0,0,0.06
2013-10-20,63.5,52.6,42.2,56.0,41.0,35.0,97,68,35,30.08,29.83,5,0,0,0.00
2013-10-21,66.6,51.9,39.1,49.0,43.0,37.0,97,76,35,30.14,29.96,5,0,0,0.00
2013-10-22,68.4,55.9,49.1,53.0,49.0,44.0,95,79,52,29.96,29.79,2,0,0,0.00
2013-10-23,57.3,49.3,44.2,47.0,42.6,37.0,96,79,47,29.87,29.62,3,0,0,0.23
2013-10-24,53.3,42.4,34.6,39.0,33.2,28.0,93,73,40,30.12,29.87,4,0,0,0.00
2013-10-25,55.3,42.5,32.5,35.0,32.7,31.0,93,71,42,30.31,30.12,7,0,0,0.00
2013-10-26,57.6,43.9,29.4,37.0,30.8,27.0,96,65,32,30.29,29.93,7,0,0,0.00
2013-10-27,60.5,48.0,35.9,41.0,37.0,34.0,94,69,40,30.12,29.93,4,0,0,0.00
2013-10-28,65.6,47.7,36.2,49.0,41.4,35.0,97,82,41,30.26,30.12,2,0,0,0.00
2013-10-29,65.6,48.7,36.8,50.0,42.7,36.0,98,82,48,30.34,30.25,2,0,0,0.00
2013-10-30,63.4,54.2,46.7,58.0,51.8,45.0,98,92,75,30.31,30.13,4,0,0,0.05
2013-10-31,69.8,61.9,51.4,61.0,57.2,50.0,98,85,69,30.17,29.78,7,0,0,0.01
2013-11-1,71.6,67.0,57.5,64.0,61.1,56.0,97,82,66,29.78,29.59,6,1,0,0.05
2013-11-2,70.9,57.7,46.0,61.0,50.1,43.0,98,79,40,29.85,29.60,3,0,0,0.03
2013-11-3,57.8,45.8,35.2,44.0,35.7,25.0,96,72,29,30.42,29.85,7,1,0,0.00
2013-11-4,45.7,38.0,29.5,33.0,26.7,21.0,87,66,38,30.61,30.42,7,0,0,0.00
2013-11-5,58.4,47.5,34.0,49.0,41.4,30.0,92,80,64,30.58,30.45,3,0,0,0.00
2013-11-6,68.9,58.3,48.3,53.0,50.2,46.0,94,76,55,30.44,30.05,5,0,0,0.00
2013-11-7,66.3,56.4,45.2,59.0,48.2,23.0,96,76,42,30.05,29.83,11,1,0,0.00
2013-11-8,52.0,41.0,30.3,32.0,26.1,20.0,86,59,32,30.30,30.05,10,1,0,0.00
2013-11-9,54.4,42.0,27.2,32.0,28.3,25.0,94,63,35,30.34,30.02,5,0,0,0.00
2013-11-10,65.0,50.5,39.5,37.0,30.1,26.0,72,48,26,30.20,29.91,11,2,0,0.00
2013-11-11,57.5,46.2,30.7,35.0,30.4,27.0,88,56,32,30.29,30.00,4,0,0,0.00
2013-11-12,50.5,41.5,29.8,39.0,24.8,14.0,76,52,37,30.37,29.95,6,1,0,0.00
2013-11-13,43.6,33.6,26.3,22.0,19.0,15.0,83,57,34,30.45,30.36,11,1,0,0.00
2013-11-14,57.2,37.4,23.6,27.0,21.7,17.0,89,59,21,30.37,30.21,2,0,0,0.00
2013-11-15,56.5,44.2,32.8,40.0,28.9,24.0,87,57,32,30.27,30.18,2,0,0,0.05
2013-11-16,52.5,48.9,43.6,51.0,47.8,41.0,97,95,90,30.30,30.21,2,0,0,0.27
2013-11-17,67.6,57.2,48.6,60.0,54.4,48.0,98,91,69,30.22,29.75,3,0,0,0.01
2013-11-18,69.6,60.1,51.3,64.0,41.2,25.0,97,57,21,29.90,29.68,8,2,0,0.16
2013-11-19,50.5,44.9,36.3,28.0,26.2,25.0,65,49,39,30.34,29.90,13,2,0,0.00
2013-11-20,46.0,36.7,29.5,31.0,27.6,24.0,89,71,51,30.53,30.34,5,0,0,0.00
2013-11-21,53.3,39.9,27.6,42.0,35.3,26.0,95,84,65,30.54,30.37,3,0,0,0.00
2013-11-22,63.2,54.3,43.2,56.0,49.9,41.0,96,86,67,30.37,29.96,4,0,0,0.05
2013-11-23,56.3,46.0,32.8,53.0,27.3,15.0,91,50,29,30.16,29.98,14,3,0,0.01
2013-11-24,32.7,28.1,23.8,15.0,5.0,1.0,51,38,28,30.50,30.17,20,4,0,0.00
2013-11-25,36.9,27.7,17.5,15.0,10.4,5.0,78,51,28,30.57,30.34,1,0,0,0.00
2013-11-26,60.1,39.8,33.5,59.0,31.4,11.0,98,76,35,30.33,29.49,10,1,0,0.94
2013-11-27,60.1,38.5,30.3,59.0,34.5,16.0,97,86,54,30.00,29.46,16,4,0,1.00
2013-11-28,37.9,30.9,26.6,25.0,16.1,11.0,84,56,35,30.47,30.02,8,1,0,0.00
2013-11-29,43.8,31.2,21.8,25.0,21.6,17.0,92,70,35,30.70,30.45,5,0,0,0.00
2013-11-30,39.6,29.7,20.6,25.0,21.9,18.0,92,74,47,30.70,30.37,0,0,0,0.00
2013-12-1,49.6,34.3,22.2,35.0,28.1,20.0,94,80,51,30.37,30.00,3,0,0,0.00
2013-12-2,49.2,41.7,34.3,42.0,36.5,32.0,94,82,63,30.00,29.85,4,0,0,0.00
2013-12-3,58.6,44.7,37.2,39.0,36.6,34.0,92,75,47,29.97,29.86,2,0,0,0.00
2013-12-4,58.7,48.2,37.2,52.0,44.7,35.0,96,88,70,30.07,29.97,4,0,0,0.00
2013-12-5,68.6,59.1,50.2,62.0,56.2,49.0,98,91,71,30.05,29.92,4,0,0,0.00
2013-12-6,65.0,53.0,39.6,63.0,51.8,39.0,97,95,89,30.12,29.87,7,1,0,0.71
2013-12-7,44.6,37.6,29.3,38.0,31.8,24.0,96,80,58,30.51,30.08,11,1,0,0.40
2013-12-8,32.4,30.6,27.5,31.0,26.1,21.0,96,84,64,30.55,30.26,2,0,0,0.43
2013-12-9,36.9,33.7,32.1,36.0,32.9,31.0,97,97,96,30.26,30.02,1,0,0,0.63
2013-12-10,35.9,32.5,26.7,35.0,30.5,25.0,98,92,73,30.20,29.96,5,0,0,0.24
2013-12-11,41.6,29.0,20.3,30.0,22.2,18.0,96,78,41,30.39,30.21,3,0,0,0.10
2013-12-12,32.4,26.3,19.9,24.0,15.0,8.0,92,65,38,30.41,30.23,8,1,0,0.00
2013-12-13,42.2,31.4,21.8,24.0,17.0,12.0,81,58,30,30.29,30.21,6,0,0,0.03
2013-12-14,41.8,36.5,28.5,41.0,33.1,23.0,97,87,73,30.30,29.67,6,0,0,0.65
2013-12-15,47.7,38.3,27.9,39.0,31.1,22.0,97,77,52,29.93,29.61,12,2,0,0.01
2013-12-16,36.3,33.0,26.9,26.0,23.6,20.0,85,69,56,30.18,29.93,5,0,0,0.00
2013-12-17,40.3,35.6,31.8,34.0,30.6,25.0,94,82,71,30.14,29.91,3,0,0,0.03
2013-12-18,41.1,32.4,25.0,31.0,25.2,20.0,96,77,46,30.20,29.96,9,1,0,0.02
2013-12-19,60.7,43.1,23.5,30.0,26.1,21.0,92,56,28,30.19,30.06,5,0,0,0.00
2013-12-20,60.9,53.6,46.7,51.0,37.7,28.0,78,56,43,30.10,29.98,4,1,0,0.00
2013-12-21,70.8,62.5,55.1,61.0,52.7,47.0,83,71,56,30.02,29.90,6,1,0,0.00
2013-12-22,71.6,64.7,59.9,63.0,60.8,58.0,96,87,75,30.02,29.84,10,2,0,0.43
2013-12-23,63.7,55.5,40.3,63.0,51.9,29.0,98,88,63,30.19,29.92,9,1,0,0.50
2013-12-24,41.1,34.8,24.5,29.0,19.9,5.0,74,55,36,30.45,30.17,14,3,0,0.00
2013-12-25,32.5,25.1,20.0,19.0,12.2,8.0,85,59,40,30.55,30.39,5,0,0,0.00
2013-12-26,44.6,30.0,19.4,24.0,21.2,17.0,92,73,42,30.38,30.21,3,0,0,0.00
2013-12-27,49.4,32.7,22.1,30.0,22.2,20.0,91,70,31,30.42,30.31,4,0,0,0.00
2013-12-28,56.9,40.5,26.3,30.0,25.1,22.0,85,58,27,30.32,30.11,4,0,0,0.00
2013-12-29,51.9,45.8,39.2,51.0,40.4,26.0,98,84,45,30.10,29.51,13,1,0,1.00
2013-12-30,47.1,38.7,32.2,42.0,32.4,24.0,97,80,61,30.16,29.81,6,1,0,0.00
2013-12-31,46.1,35.5,28.5,29.0,21.7,15.0,79,58,39,30.32,30.08,10,1,0,0.00
2014-1-1,46.8,34.1,23.9,34.0,25.7,18.0,92,73,42,30.41,30.12,3,0,0,0.00
2014-1-2,39.9,33.3,28.7,37.0,31.3,27.0,95,92,85,30.11,29.56,2,0,0,0.10